X  Blizu METAR Podaci o vazduhoplovstvu     EHRD Rotterdam The Hague Airport
Temperatura
5°C Temperatura
1°C Tačka Rose
76% Vlaga



Vetar
11 KM/S
7 MPS
3 M/S
6 Čvorovi



250°
ZJZ
Trenutna situacija

Vedro Vedro
Vazdušni pritisak 1016.92 (hPa) - 30.03 (inHg)
Vidljivost 6.2 (Milje) - 10 (km)
Aerodrom
Aerodromski kod. EHRD

Lokacija: Rotterdam The Hague Airport
Udaljenost: 16 (km)

Metar:
EHRD 261525Z AUTO 25006KT 9999 NSC 05/01 Q1017 NOSIG

Vreme: 26-01-2021 16:25 CET